createdAt,value
2023-03-20T00:02:21.842Z,15.88
2023-03-20T00:04:48.467Z,12.30
2023-03-20T00:07:14.938Z,11.73
2023-03-20T00:09:42.390Z,16.77
2023-03-20T00:12:15.581Z,15.23
2023-03-20T00:14:42.472Z,18.55
2023-03-20T00:17:18.327Z,18.98
2023-03-20T00:19:44.952Z,18.85
2023-03-20T00:22:12.432Z,25.25
2023-03-20T00:24:39.883Z,20.90
2023-03-20T00:27:06.615Z,21.33
2023-03-20T00:29:34.328Z,22.05
2023-03-20T00:32:01.100Z,22.63
2023-03-20T00:34:32.593Z,22.02
2023-03-20T00:37:00.046Z,22.70
2023-03-20T00:39:27.185Z,24.73
2023-03-20T00:42:00.671Z,21.60
2023-03-20T00:44:35.909Z,26.40
2023-03-20T00:47:20.644Z,20.17
2023-03-20T00:49:50.818Z,17.42
2023-03-20T00:52:18.995Z,21.35
2023-03-20T00:54:45.676Z,22.30
2023-03-20T00:57:24.454Z,19.48
2023-03-20T00:59:53.541Z,22.48
2023-03-20T01:02:23.566Z,23.23
2023-03-20T01:04:50.361Z,24.83
2023-03-20T01:07:16.833Z,19.70
2023-03-20T01:09:43.314Z,20.05
2023-03-20T01:12:14.817Z,23.30
2023-03-20T01:14:42.865Z,17.92
2023-03-20T01:17:19.639Z,19.98
2023-03-20T01:19:46.395Z,16.27
2023-03-20T01:22:14.253Z,16.83
2023-03-20T01:24:41.244Z,14.48
2023-03-20T01:27:16.539Z,18.38
2023-03-20T01:29:43.239Z,16.23
2023-03-20T01:32:12.830Z,15.75
2023-03-20T01:34:39.600Z,16.15
2023-03-20T01:37:12.605Z,16.05
2023-03-20T01:39:39.130Z,14.90
2023-03-20T01:42:07.189Z,17.10
2023-03-20T01:44:35.877Z,18.98
2023-03-20T01:47:04.557Z,15.57
2023-03-20T01:50:08.362Z,13.70
2023-03-20T01:52:34.952Z,12.30
2023-03-20T01:55:02.648Z,12.45
2023-03-20T01:57:29.228Z,12.20
2023-03-20T02:00:04.588Z,11.38
2023-03-20T02:02:32.833Z,12.40
2023-03-20T02:05:03.939Z,11.77
2023-03-20T02:07:32.559Z,11.68
2023-03-20T02:09:59.459Z,11.10
2023-03-20T02:12:25.895Z,15.90
2023-03-20T02:14:53.094Z,10.18
2023-03-20T02:17:20.043Z,11.18
2023-03-20T02:20:25.012Z,9.80
2023-03-20T02:23:12.488Z,12.23
2023-03-20T02:25:56.989Z,11.95
2023-03-20T02:28:33.288Z,11.50
2023-03-20T02:30:59.731Z,12.60
2023-03-20T02:33:54.167Z,13.18
2023-03-20T02:36:51.833Z,14.50
2023-03-20T02:39:55.990Z,16.00
2023-03-20T02:42:35.043Z,14.30
2023-03-20T02:45:01.791Z,15.02
2023-03-20T02:47:41.129Z,12.50
2023-03-20T02:50:24.808Z,12.95
2023-03-20T02:53:15.651Z,15.90
2023-03-20T02:55:52.963Z,13.10
2023-03-20T02:58:28.367Z,12.65
2023-03-20T03:01:01.565Z,12.60
2023-03-20T03:03:38.216Z,16.42
2023-03-20T03:06:37.216Z,13.05
2023-03-20T03:09:12.027Z,16.38
2023-03-20T03:11:45.250Z,14.25
2023-03-20T03:14:30.320Z,13.93
2023-03-20T03:16:59.145Z,16.58
2023-03-20T03:19:28.381Z,15.35
2023-03-20T03:21:55.504Z,16.33
2023-03-20T03:24:40.885Z,14.90
2023-03-20T03:27:18.196Z,19.60
2023-03-20T03:29:49.459Z,20.10
2023-03-20T03:32:35.743Z,25.42
2023-03-20T03:35:06.382Z,20.33
2023-03-20T03:38:14.386Z,19.67
2023-03-20T03:40:41.217Z,21.05
2023-03-20T03:43:17.476Z,21.10
2023-03-20T03:45:51.782Z,24.70
2023-03-20T03:48:22.868Z,23.42
2023-03-20T03:50:54.829Z,23.33
2023-03-20T03:53:28.022Z,24.15
2023-03-20T03:55:59.298Z,24.83
2023-03-20T03:58:37.848Z,23.42
2023-03-20T04:01:07.752Z,22.77
2023-03-20T04:03:40.188Z,24.85
2023-03-20T04:06:10.299Z,21.60
2023-03-20T04:08:40.689Z,24.60
2023-03-20T04:11:07.668Z,24.05
2023-03-20T04:13:34.059Z,22.63
2023-03-20T04:16:00.594Z,23.05
2023-03-20T04:18:27.015Z,21.42
2023-03-20T04:20:53.584Z,21.45
2023-03-20T04:23:20.112Z,25.90
2023-03-20T04:25:46.632Z,24.00
2023-03-20T04:28:16.254Z,22.58
2023-03-20T04:30:44.296Z,28.08
2023-03-20T04:33:10.914Z,24.35
2023-03-20T04:35:39.945Z,19.70
2023-03-20T04:38:07.304Z,26.35
2023-03-20T04:40:33.773Z,24.00
2023-03-20T04:43:00.373Z,22.35
2023-03-20T04:45:26.855Z,26.15
2023-03-20T04:47:53.396Z,23.50
2023-03-20T04:50:20.022Z,28.73
2023-03-20T04:52:46.522Z,21.50
2023-03-20T04:55:13.026Z,24.98
2023-03-20T04:57:39.523Z,28.80
2023-03-20T05:00:06.694Z,28.30
2023-03-20T05:02:33.193Z,28.80
2023-03-20T05:04:59.753Z,27.30
2023-03-20T05:07:26.477Z,24.38
2023-03-20T05:09:52.942Z,27.02
2023-03-20T05:12:19.488Z,23.20
2023-03-20T05:14:46.172Z,25.95
2023-03-20T05:17:12.686Z,25.95
2023-03-20T05:19:39.252Z,22.85
2023-03-20T05:22:05.685Z,25.83
2023-03-20T05:24:32.419Z,27.67
2023-03-20T05:26:58.941Z,24.90
2023-03-20T05:29:25.406Z,23.35
2023-03-20T05:31:51.950Z,26.27
2023-03-20T05:34:18.671Z,26.40
2023-03-20T05:36:45.571Z,22.33
2023-03-20T05:39:12.012Z,23.15
2023-03-20T05:41:38.474Z,22.95
2023-03-20T05:44:05.604Z,26.02
2023-03-20T05:46:32.150Z,22.40
2023-03-20T05:48:58.610Z,24.25
2023-03-20T05:51:25.012Z,22.75
2023-03-20T05:53:52.608Z,23.45
2023-03-20T05:56:19.175Z,21.10
2023-03-20T05:58:45.661Z,21.70
2023-03-20T06:01:12.120Z,22.80
2023-03-20T06:03:38.928Z,20.42
2023-03-20T06:06:05.792Z,19.88
2023-03-20T06:08:32.510Z,23.70
2023-03-20T06:10:59.119Z,25.98
2023-03-20T06:13:25.650Z,22.45
2023-03-20T06:15:52.295Z,23.77
2023-03-20T06:18:18.919Z,20.83
2023-03-20T06:20:45.479Z,21.52
2023-03-20T06:23:12.044Z,23.02
2023-03-20T06:25:38.854Z,20.23
2023-03-20T06:28:05.395Z,22.40
2023-03-20T06:30:31.915Z,25.30
2023-03-20T06:32:58.624Z,20.17
2023-03-20T06:35:25.455Z,18.63
2023-03-20T06:37:51.897Z,20.90
2023-03-20T06:40:18.359Z,20.05
2023-03-20T06:42:44.797Z,25.63
2023-03-20T06:45:12.236Z,21.65
2023-03-20T06:47:38.730Z,20.25
2023-03-20T06:50:05.632Z,20.30
2023-03-20T06:52:32.157Z,22.77
2023-03-20T06:54:58.716Z,17.98
2023-03-20T06:57:25.298Z,19.25
2023-03-20T06:59:51.748Z,22.30
2023-03-20T07:02:18.262Z,19.90
2023-03-20T07:04:44.972Z,25.45
2023-03-20T07:07:11.483Z,21.25
2023-03-20T07:09:38.383Z,19.27
2023-03-20T07:12:05.066Z,20.10
2023-03-20T07:14:31.770Z,19.75
2023-03-20T07:16:58.519Z,19.42
2023-03-20T07:19:25.476Z,22.77
2023-03-20T07:21:58.766Z,20.25
2023-03-20T07:24:25.367Z,22.05
2023-03-20T07:26:51.833Z,17.35
2023-03-20T07:29:18.363Z,19.67
2023-03-20T07:31:44.877Z,20.50
2023-03-20T07:34:12.785Z,18.98
2023-03-20T07:36:39.324Z,18.33
2023-03-20T07:39:06.214Z,20.00
2023-03-20T07:41:32.721Z,22.98
2023-03-20T07:43:59.145Z,24.02
2023-03-20T07:46:26.369Z,21.00
2023-03-20T07:48:52.835Z,19.42
2023-03-20T07:51:19.266Z,16.23
2023-03-20T07:53:45.823Z,23.65
2023-03-20T07:56:12.197Z,23.90
2023-03-20T07:58:38.611Z,17.73
2023-03-20T08:01:05.200Z,21.05
2023-03-20T08:03:31.957Z,20.70
2023-03-20T08:05:58.595Z,19.38
2023-03-20T08:08:25.611Z,16.85
2023-03-20T08:10:52.044Z,18.20
2023-03-20T08:13:18.553Z,16.23
2023-03-20T08:15:47.174Z,16.73
2023-03-20T08:18:13.816Z,16.98
2023-03-20T08:20:40.569Z,16.20
2023-03-20T08:23:07.870Z,15.20
2023-03-20T08:25:35.167Z,14.50
2023-03-20T08:28:01.815Z,18.15
2023-03-20T08:30:28.461Z,15.23
2023-03-20T08:32:55.129Z,14.15
2023-03-20T08:35:32.622Z,14.25
2023-03-20T08:38:00.860Z,16.98
2023-03-20T08:40:27.598Z,16.00
2023-03-20T08:42:54.040Z,13.43
2023-03-20T08:45:20.897Z,19.20
2023-03-20T08:47:48.797Z,12.57
2023-03-20T08:50:16.224Z,16.73
2023-03-20T08:52:44.247Z,17.38
2023-03-20T08:55:12.050Z,17.48
2023-03-20T08:57:38.532Z,17.23
2023-03-20T09:00:07.293Z,15.80
2023-03-20T09:02:34.507Z,15.40
2023-03-20T09:05:01.446Z,16.65
2023-03-20T09:07:27.968Z,15.80
2023-03-20T09:09:54.393Z,13.57
2023-03-20T09:12:20.963Z,15.70
2023-03-20T09:14:47.481Z,13.43
2023-03-20T09:17:13.967Z,13.25
2023-03-20T09:19:44.072Z,14.07
2023-03-20T09:22:14.454Z,14.73
2023-03-20T09:24:41.141Z,17.83
2023-03-20T09:27:07.611Z,16.75
2023-03-20T09:29:34.111Z,14.57
2023-03-20T09:32:01.067Z,17.15
2023-03-20T09:34:29.625Z,16.08
2023-03-20T09:36:56.301Z,14.43
2023-03-20T09:39:22.799Z,15.75
2023-03-20T09:41:57.157Z,14.77
2023-03-20T09:44:38.284Z,18.30
2023-03-20T09:47:20.515Z,13.82
2023-03-20T09:50:02.541Z,16.20
2023-03-20T09:52:41.461Z,16.40
2023-03-20T09:55:17.550Z,12.55
2023-03-20T09:57:49.246Z,13.82
2023-03-20T10:00:24.645Z,15.05
2023-03-20T10:02:59.732Z,12.55
2023-03-20T10:05:30.195Z,10.52
2023-03-20T10:08:03.116Z,13.88
2023-03-20T10:10:41.784Z,12.05
2023-03-20T10:13:23.404Z,16.10
2023-03-20T10:15:59.341Z,15.30
2023-03-20T10:18:29.708Z,13.05
2023-03-20T10:21:18.761Z,12.40
2023-03-20T10:24:06.958Z,9.98
2023-03-20T10:26:36.146Z,8.93
2023-03-20T10:29:12.869Z,17.42
2023-03-20T10:32:00.448Z,8.95
2023-03-20T10:34:30.356Z,12.90
2023-03-20T10:37:16.820Z,12.05
2023-03-20T10:40:14.057Z,13.20
2023-03-20T10:42:46.947Z,11.75
2023-03-20T10:45:46.497Z,11.68
2023-03-20T10:48:21.342Z,9.45
2023-03-20T10:50:53.994Z,10.93
2023-03-20T10:53:31.481Z,11.95
2023-03-20T10:56:03.198Z,8.70
2023-03-20T10:58:38.593Z,11.95
2023-03-20T11:01:05.484Z,9.75
2023-03-20T11:03:34.382Z,10.38
2023-03-20T11:06:10.177Z,14.82
2023-03-20T11:08:41.862Z,12.32
2023-03-20T11:11:09.073Z,13.90
2023-03-20T11:13:43.615Z,12.95
2023-03-20T11:16:31.794Z,10.70
2023-03-20T11:19:06.098Z,14.23
2023-03-20T11:21:33.702Z,14.45
2023-03-20T11:24:01.406Z,9.75
2023-03-20T11:26:32.458Z,13.13
2023-03-20T11:28:59.862Z,15.43
2023-03-20T11:31:38.866Z,14.88
2023-03-20T11:34:24.143Z,13.50
2023-03-20T11:37:09.587Z,20.05
2023-03-20T11:39:38.068Z,13.77
2023-03-20T11:42:05.682Z,17.63
2023-03-20T11:44:36.814Z,15.98
2023-03-20T11:47:04.746Z,17.98
2023-03-20T11:49:34.951Z,15.43
2023-03-20T11:52:12.657Z,18.60
2023-03-20T11:54:48.710Z,17.20
2023-03-20T11:57:32.367Z,20.70
2023-03-20T12:00:03.130Z,15.50
2023-03-20T12:02:29.907Z,18.20
2023-03-20T12:05:00.445Z,17.13
2023-03-20T12:07:33.933Z,16.90
2023-03-20T12:10:06.016Z,19.73
2023-03-20T12:12:41.179Z,20.05
2023-03-20T12:15:22.033Z,19.30
2023-03-20T12:17:54.548Z,19.52
2023-03-20T12:20:55.293Z,15.73
2023-03-20T12:23:37.251Z,19.80
2023-03-20T12:26:27.813Z,17.98
2023-03-20T12:29:13.019Z,20.13
2023-03-20T12:31:46.831Z,20.13
2023-03-20T12:34:28.113Z,20.85
2023-03-20T12:36:57.379Z,20.73
2023-03-20T12:39:31.860Z,25.05
2023-03-20T12:42:18.624Z,20.80
2023-03-20T12:44:54.856Z,23.73
2023-03-20T12:47:59.736Z,24.55
2023-03-20T12:50:36.332Z,22.60
2023-03-20T12:53:35.188Z,19.25
2023-03-20T12:56:08.698Z,19.65
2023-03-20T12:58:44.824Z,23.33
2023-03-20T13:01:11.352Z,23.20
2023-03-20T13:03:50.013Z,22.02
2023-03-20T13:06:38.806Z,23.55
2023-03-20T13:09:23.150Z,21.80
2023-03-20T13:12:04.729Z,21.70
2023-03-20T13:14:37.229Z,17.88
2023-03-20T13:17:35.842Z,27.50
2023-03-20T13:20:17.343Z,21.92
2023-03-20T13:23:05.646Z,20.05
2023-03-20T13:25:53.730Z,26.75
2023-03-20T13:28:39.599Z,24.95
2023-03-20T13:31:28.004Z,21.23
2023-03-20T13:34:04.479Z,24.08
2023-03-20T13:36:52.417Z,21.70
2023-03-20T13:39:29.680Z,23.02
2023-03-20T13:41:59.237Z,22.35
2023-03-20T13:44:29.299Z,20.83
2023-03-20T13:47:12.220Z,20.33
2023-03-20T13:49:55.851Z,22.80
2023-03-20T13:52:26.003Z,20.85
2023-03-20T13:54:59.235Z,21.83
2023-03-20T13:57:31.691Z,20.52
2023-03-20T14:00:09.359Z,24.45
2023-03-20T14:03:06.210Z,20.30
2023-03-20T14:05:38.040Z,23.92
2023-03-20T14:08:27.759Z,21.85
2023-03-20T14:11:06.992Z,19.42
2023-03-20T14:13:35.249Z,22.95
2023-03-20T14:16:07.312Z,25.17
2023-03-20T14:18:33.889Z,23.23
2023-03-20T14:21:03.331Z,25.33
2023-03-20T14:23:29.742Z,22.27
2023-03-20T14:25:57.350Z,24.40
2023-03-20T14:28:35.478Z,25.58
2023-03-20T14:31:20.406Z,22.95
2023-03-20T14:33:57.734Z,22.50
2023-03-20T14:36:48.964Z,22.73
2023-03-20T14:39:57.542Z,21.98
2023-03-20T14:42:32.923Z,20.65
2023-03-20T14:45:42.037Z,23.25
2023-03-20T14:48:52.173Z,23.73
2023-03-20T14:51:39.071Z,21.63
2023-03-20T14:54:26.455Z,19.65
2023-03-20T14:56:53.851Z,23.48
2023-03-20T14:59:22.749Z,20.40
2023-03-20T15:02:00.340Z,20.15
2023-03-20T15:04:39.420Z,23.85
2023-03-20T15:07:22.474Z,20.20
2023-03-20T15:09:53.415Z,21.90
2023-03-20T15:12:24.631Z,23.35
2023-03-20T15:14:58.197Z,22.02
2023-03-20T15:17:36.325Z,23.50
2023-03-20T15:20:18.029Z,20.10
2023-03-20T15:23:10.996Z,23.02
2023-03-20T15:25:43.812Z,21.67
2023-03-20T15:28:25.622Z,19.17
2023-03-20T15:30:55.614Z,19.63
2023-03-20T15:33:27.648Z,20.45
2023-03-20T15:35:54.656Z,20.75
2023-03-20T15:38:21.757Z,20.02
2023-03-20T15:40:51.313Z,20.45
2023-03-20T15:43:24.841Z,20.35
2023-03-20T15:46:02.772Z,22.90
2023-03-20T15:48:33.215Z,20.05
2023-03-20T15:51:05.136Z,18.40
2023-03-20T15:53:37.739Z,18.17
2023-03-20T15:56:19.353Z,19.27
2023-03-20T15:58:49.102Z,22.00
2023-03-20T16:01:21.467Z,20.00
2023-03-20T16:03:49.306Z,21.40
2023-03-20T16:06:21.083Z,23.05
2023-03-20T16:08:58.401Z,20.70
2023-03-20T16:11:24.978Z,19.77
2023-03-20T16:13:53.217Z,22.95
2023-03-20T16:16:23.860Z,25.98
2023-03-20T16:21:24.892Z,23.58
2023-03-20T16:23:57.293Z,22.25
2023-03-20T16:26:26.138Z,22.15
2023-03-20T16:28:55.395Z,26.30
2023-03-20T16:31:31.798Z,26.65
2023-03-20T16:34:05.929Z,25.17
2023-03-20T16:36:37.714Z,26.10
2023-03-20T16:39:18.052Z,29.70
2023-03-20T16:41:46.252Z,27.08
2023-03-20T16:44:28.098Z,27.60
2023-03-20T16:46:54.615Z,28.33
2023-03-20T16:49:27.175Z,27.92
2023-03-20T16:51:59.527Z,29.35
2023-03-20T16:54:29.254Z,25.55
2023-03-20T16:56:56.620Z,24.98
2023-03-20T16:59:25.278Z,27.15
2023-03-20T17:01:54.112Z,28.30
2023-03-20T17:04:32.962Z,28.30
2023-03-20T17:07:06.632Z,28.45
2023-03-20T17:09:33.468Z,29.17
2023-03-20T17:12:13.026Z,28.75
2023-03-20T17:14:45.165Z,26.85
2023-03-20T17:17:13.925Z,33.45
2023-03-20T17:19:40.926Z,31.17
2023-03-20T17:22:15.716Z,28.13
2023-03-20T17:24:42.269Z,29.17
2023-03-20T17:27:12.065Z,35.10
2023-03-20T17:29:40.515Z,29.35
2023-03-20T17:32:15.948Z,31.77
2023-03-20T17:34:43.260Z,32.53
2023-03-20T17:37:29.835Z,30.65
2023-03-20T17:39:56.868Z,29.60
2023-03-20T17:42:26.887Z,29.05
2023-03-20T17:44:53.416Z,27.05
2023-03-20T17:47:22.964Z,33.53
2023-03-20T17:49:50.329Z,27.73
2023-03-20T17:52:19.200Z,31.38
2023-03-20T17:54:46.400Z,28.83
2023-03-20T17:57:26.609Z,31.27
2023-03-20T17:59:53.126Z,31.08
2023-03-20T18:02:19.731Z,30.63
2023-03-20T18:04:46.806Z,30.38
2023-03-20T18:07:14.129Z,27.85
2023-03-20T18:09:41.768Z,31.08
2023-03-20T18:12:15.657Z,28.65
2023-03-20T18:14:43.527Z,23.60
2023-03-20T18:17:14.226Z,28.20
2023-03-20T18:19:41.766Z,33.33
2023-03-20T18:22:08.725Z,29.35
2023-03-20T18:24:36.076Z,27.67
2023-03-20T18:27:03.011Z,25.40
2023-03-20T18:29:29.566Z,31.48
2023-03-20T18:31:56.158Z,26.48
2023-03-20T18:34:22.681Z,27.85
2023-03-20T18:36:49.201Z,27.65
2023-03-20T18:39:24.376Z,27.40
2023-03-20T18:41:51.492Z,28.23
2023-03-20T18:44:18.096Z,26.60
2023-03-20T18:46:44.705Z,26.25
2023-03-20T18:49:16.586Z,26.67
2023-03-20T18:51:43.736Z,27.13
2023-03-20T18:54:10.467Z,28.05
2023-03-20T18:56:37.843Z,26.65
2023-03-20T18:59:07.782Z,24.63
2023-03-20T19:01:36.086Z,26.52
2023-03-20T19:04:03.279Z,27.52
2023-03-20T19:06:32.014Z,26.17
2023-03-20T19:08:58.660Z,27.00
2023-03-20T19:11:25.280Z,25.70
2023-03-20T19:13:53.177Z,29.20
2023-03-20T19:16:31.619Z,25.45
2023-03-20T19:19:01.381Z,26.33
2023-03-20T19:21:32.522Z,27.50
2023-03-20T19:24:01.872Z,24.17
2023-03-20T19:26:30.314Z,26.77
2023-03-20T19:28:58.557Z,25.27
2023-03-20T19:31:26.054Z,25.00
2023-03-20T19:33:52.830Z,26.52
2023-03-20T19:36:32.030Z,25.63
2023-03-20T19:39:00.378Z,25.83
2023-03-20T19:41:28.690Z,29.13
2023-03-20T19:43:55.964Z,29.67
2023-03-20T19:46:38.768Z,27.60
2023-03-20T19:49:17.340Z,23.85
2023-03-20T19:51:44.912Z,28.60
2023-03-20T19:54:11.610Z,28.25
2023-03-20T19:56:38.122Z,25.88
2023-03-20T19:59:05.773Z,27.80
2023-03-20T20:01:35.019Z,27.27
2023-03-20T20:04:01.752Z,27.33
2023-03-20T20:06:32.169Z,26.13
2023-03-20T20:09:00.857Z,21.27
2023-03-20T20:11:30.371Z,27.58
2023-03-20T20:14:06.777Z,24.65
2023-03-20T20:16:40.073Z,27.25
2023-03-20T20:19:06.915Z,27.92
2023-03-20T20:24:20.241Z,23.45
2023-03-20T20:27:07.052Z,21.73
2023-03-20T20:29:37.739Z,22.33
2023-03-20T20:32:04.454Z,20.27
2023-03-20T20:38:09.084Z,21.73
2023-03-20T20:40:14.946Z,21.92
2023-03-20T20:42:43.227Z,21.10
2023-03-20T20:45:14.297Z,22.42
2023-03-20T20:47:41.996Z,19.50
2023-03-20T20:50:09.346Z,22.65
2023-03-20T20:52:37.022Z,19.92
2023-03-20T20:55:21.770Z,21.17
2023-03-20T20:57:50.074Z,20.77
2023-03-20T21:00:18.296Z,18.20
2023-03-20T21:02:44.890Z,19.15
2023-03-20T21:05:16.643Z,19.55
2023-03-20T21:07:45.173Z,20.77
2023-03-20T21:10:13.037Z,17.95
2023-03-20T21:12:55.936Z,18.27
2023-03-20T21:15:25.209Z,20.08
2023-03-20T21:18:00.403Z,18.08
2023-03-20T21:20:27.953Z,18.25
2023-03-20T21:22:54.379Z,19.40
2023-03-20T21:25:38.409Z,18.20
2023-03-20T21:28:06.558Z,18.27
2023-03-20T21:30:33.537Z,17.35
2023-03-20T21:33:00.462Z,19.35
2023-03-20T21:35:27.549Z,18.85
2023-03-20T21:40:41.950Z,18.75
2023-03-20T21:43:09.421Z,17.15
2023-03-20T21:46:25.041Z,18.88
2023-03-20T21:49:03.846Z,17.92
2023-03-20T21:57:21.203Z,21.27
2023-03-20T22:02:23.682Z,20.88
2023-03-20T22:05:41.887Z,19.95
2023-03-20T22:08:19.540Z,19.30
2023-03-20T22:14:13.428Z,21.13
2023-03-20T22:16:43.203Z,20.48
2023-03-20T22:22:23.172Z,20.38
2023-03-20T22:33:33.129Z,18.58
2023-03-20T22:41:59.237Z,19.83
2023-03-20T22:46:45.766Z,16.40
2023-03-20T22:49:13.327Z,20.02
2023-03-20T22:51:52.239Z,17.13
2023-03-20T22:54:24.495Z,19.75
2023-03-20T22:56:50.966Z,18.40
2023-03-20T22:59:17.420Z,19.42
2023-03-20T23:01:43.919Z,18.73
2023-03-20T23:04:10.560Z,18.08
2023-03-20T23:06:37.088Z,19.55
2023-03-20T23:09:14.468Z,18.75
2023-03-20T23:11:41.773Z,19.38
2023-03-20T23:14:18.311Z,20.05
2023-03-20T23:16:46.941Z,18.23
2023-03-20T23:19:13.452Z,16.75
2023-03-20T23:21:40.163Z,19.63
2023-03-20T23:24:07.309Z,19.50
2023-03-20T23:26:33.710Z,17.08
2023-03-20T23:29:01.634Z,20.63
2023-03-20T23:31:28.128Z,19.50
2023-03-20T23:33:57.387Z,18.40
2023-03-20T23:36:35.842Z,18.10
2023-03-20T23:39:06.167Z,18.40
2023-03-20T23:41:58.023Z,20.30
2023-03-20T23:44:19.821Z,20.38
2023-03-20T23:46:48.113Z,19.75
2023-03-20T23:49:15.675Z,17.80
2023-03-20T23:51:42.205Z,18.55
2023-03-20T23:54:10.667Z,19.88
2023-03-20T23:56:37.113Z,20.23
2023-03-20T23:59:18.361Z,20.58
